West Brookfield, MA (01585)

12:17 AM EST on March 07, 2015 (GMT -0500)
Lake Shore Drive | Change Station
CLOSE
Current Station
Personal Weather Station
Location: West Brookfield, MA
Elevation: 633 ft
Nearby Weather Stations

Elev 633 ft 42.24 °N, 72.16 °W | Updated 8 minutes ago

Partly Cloudy
Partly Cloudy
11.8 °F
Feels Like 12 °F
N
0.0
Wind Variable Wind from WSW
Gusts 0.0 mph

Today
High -- | Low -- °F
--% Chance of Precip.
Yesterday
High -- | Low -- °F
Precip. -- in
6:14 AM 5:45 PM
Full, 98% visible
Pressure 30.27 in
Visibility 10.0 miles
Clouds Clear
Windchill 12 °F
Dew Point 6 °F
Humidity 76%
Rainfall 0.00 in
Snow Depth Not available.
UV 0 out of 12
Pollen .50 out of 12
Air Quality Not available.
Flu Activity Not available.
METAR KORH 070454Z AUTO 25012KT 10SM CLR M09/M16 A3020 RMK AO2 SLP248 T10941161 410441150

More Conditions Fewer Conditions

Pressure 30.27 in
Visibility 10.0 miles
Clouds Clear
Windchill 12 °F
Dew Point 6 °F
Humidity 76%
Rainfall 0.00 in
Snow Depth Not available.
UV 0 out of 12
Pollen .50 out of 12
Air Quality Not available.
Flu Activity Not available.
METAR KORH 070454Z AUTO 25012KT 10SM CLR M09/M16 A3020 RMK AO2 SLP248 T10941161 410441150

More Conditions Fewer Conditions

10-Day Weather Forecast

Almanac

Astronomy

Mar. 07, 2015 Rise Set
Actual Time
Civil Twilight
Nautical Twilight
Astronomical Twilight
Moon
Length of Visible Light
Length of Day
Tomorrow will be .
, % of the Moon is Illuminated

Today's Extremes

State Highs State Lows

Community

WunderPhotos

Upload Photos

1,803,548 photos uploaded!

WunderBlogs® & News

Nearby

Air Quality

  Air Quality AQ Index Pollutant
Not available.

Snow Depth

Station Depth Elevation

Earthquake Activity

City Distance Mag. Time & Date
Minimum magnitude displayed is 2.5.

Coastal Water Temperatures

Place Temperature

Nearby Weather Stations